sensor_id;sensor_type;location;lat;lon;timestamp;pressure;altitude;pressure_sealevel;temperature;humidity
59789;BME280;47353;51.614;5.530;2023-03-04T00:00:07;102550.41;;;5.55;73.25
59789;BME280;47353;51.614;5.530;2023-03-04T00:02:32;102531.34;;;5.47;73.67
59789;BME280;47353;51.614;5.530;2023-03-04T00:04:58;102551.63;;;5.52;73.31
59789;BME280;47353;51.614;5.530;2023-03-04T00:07:23;102555.03;;;5.54;73.41
59789;BME280;47353;51.614;5.530;2023-03-04T00:09:49;102553.16;;;5.55;73.60
59789;BME280;47353;51.614;5.530;2023-03-04T00:12:14;102556.09;;;5.53;73.57
59789;BME280;47353;51.614;5.530;2023-03-04T00:14:40;102557.13;;;5.52;73.91
59789;BME280;47353;51.614;5.530;2023-03-04T00:17:05;102551.63;;;5.52;74.09
59789;BME280;47353;51.614;5.530;2023-03-04T00:19:31;102551.00;;;5.50;74.26
59789;BME280;47353;51.614;5.530;2023-03-04T00:21:57;102548.69;;;5.47;74.39
59789;BME280;47353;51.614;5.530;2023-03-04T00:24:22;102538.31;;;5.43;74.73
59789;BME280;47353;51.614;5.530;2023-03-04T00:26:49;102538.91;;;5.45;74.72
59789;BME280;47353;51.614;5.530;2023-03-04T00:29:14;102546.34;;;5.44;74.47
59789;BME280;47353;51.614;5.530;2023-03-04T00:31:40;102544.63;;;5.43;74.51
59789;BME280;47353;51.614;5.530;2023-03-04T00:34:05;102537.44;;;5.42;73.99
59789;BME280;47353;51.614;5.530;2023-03-04T00:36:30;102539.31;;;5.42;73.58
59789;BME280;47353;51.614;5.530;2023-03-04T00:38:56;102534.91;;;5.41;73.29
59789;BME280;47353;51.614;5.530;2023-03-04T00:41:21;102538.31;;;5.43;73.64
59789;BME280;47353;51.614;5.530;2023-03-04T00:43:47;102536.38;;;5.43;73.48
59789;BME280;47353;51.614;5.530;2023-03-04T00:46:12;102535.34;;;5.44;73.68
59789;BME280;47353;51.614;5.530;2023-03-04T00:48:39;102537.25;;;5.44;73.98
59789;BME280;47353;51.614;5.530;2023-03-04T00:51:04;102535.56;;;5.43;73.98
59789;BME280;47353;51.614;5.530;2023-03-04T00:53:30;102540.59;;;5.39;74.21
59789;BME280;47353;51.614;5.530;2023-03-04T00:55:55;102544.19;;;5.40;74.37
59789;BME280;47353;51.614;5.530;2023-03-04T00:58:21;102545.88;;;5.41;74.38
59789;BME280;47353;51.614;5.530;2023-03-04T01:00:46;102544.41;;;5.38;74.96
59789;BME280;47353;51.614;5.530;2023-03-04T01:03:11;102545.22;;;5.39;74.79
59789;BME280;47353;51.614;5.530;2023-03-04T01:05:37;102542.47;;;5.39;74.94
59789;BME280;47353;51.614;5.530;2023-03-04T01:08:02;102542.06;;;5.35;75.12
59789;BME280;47353;51.614;5.530;2023-03-04T01:10:28;102539.31;;;5.35;75.30
59789;BME280;47353;51.614;5.530;2023-03-04T01:12:53;102541.00;;;5.36;75.37
59789;BME280;47353;51.614;5.530;2023-03-04T01:15:19;102541.19;;;5.35;75.11
59789;BME280;47353;51.614;5.530;2023-03-04T01:17:44;102540.13;;;5.36;75.10
59789;BME280;47353;51.614;5.530;2023-03-04T01:20:10;102547.53;;;5.35;75.41
59789;BME280;47353;51.614;5.530;2023-03-04T01:22:36;102551.13;;;5.36;75.64
59789;BME280;47353;51.614;5.530;2023-03-04T01:25:02;102540.78;;;5.38;75.76
59789;BME280;47353;51.614;5.530;2023-03-04T01:27:27;102541.19;;;5.35;75.73
59789;BME280;47353;51.614;5.530;2023-03-04T01:29:53;102533.16;;;5.33;76.06
59789;BME280;47353;51.614;5.530;2023-03-04T01:32:18;102536.72;;;5.34;76.33
59789;BME280;47353;51.614;5.530;2023-03-04T01:34:44;102536.94;;;5.32;76.32
59789;BME280;47353;51.614;5.530;2023-03-04T01:37:10;102528.69;;;5.32;76.49
59789;BME280;47353;51.614;5.530;2023-03-04T01:39:37;102527.88;;;5.32;76.67
59789;BME280;47353;51.614;5.530;2023-03-04T01:42:03;102529.31;;;5.28;76.78
59789;BME280;47353;51.614;5.530;2023-03-04T01:44:28;102527.22;;;5.30;76.77
59789;BME280;47353;51.614;5.530;2023-03-04T01:46:54;102519.78;;;5.24;77.12
59789;BME280;47353;51.614;5.530;2023-03-04T01:49:20;102520.44;;;5.26;77.34
59789;BME280;47353;51.614;5.530;2023-03-04T01:51:51;102518.94;;;5.23;77.44
59789;BME280;47353;51.614;5.530;2023-03-04T01:54:18;102514.97;;;5.26;77.60
59789;BME280;47353;51.614;5.530;2023-03-04T01:56:46;102516.84;;;5.25;77.45
59789;BME280;47353;51.614;5.530;2023-03-04T01:59:20;102504.78;;;5.20;77.54
59789;BME280;47353;51.614;5.530;2023-03-04T02:01:54;102507.53;;;5.20;77.66
59789;BME280;47353;51.614;5.530;2023-03-04T02:04:23;102505.00;;;5.18;77.59
59789;BME280;47353;51.614;5.530;2023-03-04T02:06:49;102503.06;;;5.18;77.60
59789;BME280;47353;51.614;5.530;2023-03-04T02:09:15;102505.00;;;5.18;78.15
59789;BME280;47353;51.614;5.530;2023-03-04T02:11:42;102499.31;;;5.20;77.69
59789;BME280;47353;51.614;5.530;2023-03-04T02:14:10;102496.97;;;5.17;77.51
59789;BME280;47353;51.614;5.530;2023-03-04T02:16:36;102495.91;;;5.18;77.31
59789;BME280;47353;51.614;5.530;2023-03-04T02:19:04;102494.00;;;5.18;77.49
59789;BME280;47353;51.614;5.530;2023-03-04T02:21:32;102495.03;;;5.17;77.41
59789;BME280;47353;51.614;5.530;2023-03-04T02:24:19;102487.66;;;5.18;77.89
59789;BME280;47353;51.614;5.530;2023-03-04T02:26:47;102495.69;;;5.19;77.58
59789;BME280;47353;51.614;5.530;2023-03-04T02:29:14;102483.03;;;5.18;77.82
59789;BME280;47353;51.614;5.530;2023-03-04T02:31:42;102487.88;;;5.16;77.84
59789;BME280;47353;51.614;5.530;2023-03-04T02:34:14;102487.66;;;5.18;78.21
59789;BME280;47353;51.614;5.530;2023-03-04T02:36:41;102474.53;;;5.13;77.92
59789;BME280;47353;51.614;5.530;2023-03-04T02:39:32;102480.91;;;5.20;78.00
59789;BME280;47353;51.614;5.530;2023-03-04T02:41:59;102490.63;;;5.16;78.25
59789;BME280;47353;51.614;5.530;2023-03-04T02:44:40;102476.22;;;5.14;78.51
59789;BME280;47353;51.614;5.530;2023-03-04T02:47:08;102478.97;;;5.14;78.79
59789;BME280;47353;51.614;5.530;2023-03-04T02:49:35;102473.88;;;5.11;78.56
59789;BME280;47353;51.614;5.530;2023-03-04T02:52:05;102479.19;;;5.12;78.90
59789;BME280;47353;51.614;5.530;2023-03-04T02:54:31;102472.81;;;5.12;78.91
59789;BME280;47353;51.614;5.530;2023-03-04T02:56:59;102469.91;;;5.13;79.19
59789;BME280;47353;51.614;5.530;2023-03-04T02:59:25;102464.78;;;5.10;79.26
59789;BME280;47353;51.614;5.530;2023-03-04T03:01:51;102465.66;;;5.11;79.38
59789;BME280;47353;51.614;5.530;2023-03-04T03:04:17;102462.91;;;5.11;79.73
59789;BME280;47353;51.614;5.530;2023-03-04T03:06:44;102462.06;;;5.10;79.78
59789;BME280;47353;51.614;5.530;2023-03-04T03:09:09;102466.50;;;5.11;79.89
59789;BME280;47353;51.614;5.530;2023-03-04T03:11:35;102456.16;;;5.07;80.11
59789;BME280;47353;51.614;5.530;2023-03-04T03:14:00;102457.38;;;5.04;80.02
59789;BME280;47353;51.614;5.530;2023-03-04T03:16:26;102460.38;;;5.09;80.07
59789;BME280;47353;51.614;5.530;2023-03-04T03:18:52;102459.50;;;5.09;80.37
59789;BME280;47353;51.614;5.530;2023-03-04T03:21:17;102456.78;;;5.09;80.20
59789;BME280;47353;51.614;5.530;2023-03-04T03:23:43;102456.56;;;5.04;79.80
59789;BME280;47353;51.614;5.530;2023-03-04T03:26:08;102459.50;;;5.09;79.80
59789;BME280;47353;51.614;5.530;2023-03-04T03:28:34;102458.69;;;5.08;79.73
59789;BME280;47353;51.614;5.530;2023-03-04T03:31:00;102454.22;;;5.07;79.78
59789;BME280;47353;51.614;5.530;2023-03-04T03:33:25;102454.84;;;5.03;79.59
59789;BME280;47353;51.614;5.530;2023-03-04T03:35:51;102447.47;;;5.03;79.18
59789;BME280;47353;51.614;5.530;2023-03-04T03:38:16;102452.09;;;5.03;79.24
59789;BME280;47353;51.614;5.530;2023-03-04T03:40:42;102452.94;;;5.03;79.41
59789;BME280;47353;51.614;5.530;2023-03-04T03:43:07;102448.53;;;5.02;79.34
59789;BME280;47353;51.614;5.530;2023-03-04T03:45:32;102452.09;;;5.03;79.53
59789;BME280;47353;51.614;5.530;2023-03-04T03:47:58;102451.06;;;5.04;79.73
59789;BME280;47353;51.614;5.530;2023-03-04T03:50:23;102441.97;;;5.03;79.30
59789;BME280;47353;51.614;5.530;2023-03-04T03:52:48;102450.19;;;5.03;79.10
59789;BME280;47353;51.614;5.530;2023-03-04T03:55:14;102443.03;;;5.02;79.35
59789;BME280;47353;51.614;5.530;2023-03-04T03:57:39;102439.63;;;5.00;78.98
59789;BME280;47353;51.614;5.530;2023-03-04T04:00:06;102447.88;;;5.00;78.84
59789;BME280;47353;51.614;5.530;2023-03-04T04:02:32;102445.31;;;4.99;78.90
59789;BME280;47353;51.614;5.530;2023-03-04T04:04:57;102448.06;;;4.99;78.98
59789;BME280;47353;51.614;5.530;2023-03-04T04:07:22;102444.66;;;4.97;78.94
59789;BME280;47353;51.614;5.530;2023-03-04T04:09:48;102444.03;;;4.95;78.99
59789;BME280;47353;51.614;5.530;2023-03-04T04:12:17;102451.00;;;4.97;78.87
59789;BME280;47353;51.614;5.530;2023-03-04T04:14:42;102453.56;;;4.99;79.21
59789;BME280;47353;51.614;5.530;2023-03-04T04:17:08;102450.59;;;5.00;79.18
59789;BME280;47353;51.614;5.530;2023-03-04T04:19:34;102456.31;;;4.99;79.34
59789;BME280;47353;51.614;5.530;2023-03-04T04:21:59;102453.56;;;4.99;79.32
59789;BME280;47353;51.614;5.530;2023-03-04T04:24:25;102454.41;;;4.99;79.42
59789;BME280;47353;51.614;5.530;2023-03-04T04:26:50;102459.25;;;4.97;79.30
59789;BME280;47353;51.614;5.530;2023-03-04T04:29:17;102454.63;;;4.98;79.54
59789;BME280;47353;51.614;5.530;2023-03-04T04:31:42;102453.09;;;4.95;79.60
59789;BME280;47353;51.614;5.530;2023-03-04T04:34:08;102447.81;;;4.94;79.07
59789;BME280;47353;51.614;5.530;2023-03-04T04:36:33;102448.66;;;4.94;79.38
59789;BME280;47353;51.614;5.530;2023-03-04T04:38:59;102444.63;;;4.90;79.28
59789;BME280;47353;51.614;5.530;2023-03-04T04:41:27;102450.75;;;4.92;79.42
59789;BME280;47353;51.614;5.530;2023-03-04T04:43:54;102444.00;;;4.88;79.44
59789;BME280;47353;51.614;5.530;2023-03-04T04:46:19;102456.91;;;4.94;79.53
59789;BME280;47353;51.614;5.530;2023-03-04T04:48:45;102450.56;;;4.94;79.68
59789;BME280;47353;51.614;5.530;2023-03-04T04:51:11;102452.66;;;4.92;79.60
59789;BME280;47353;51.614;5.530;2023-03-04T04:53:36;102458.13;;;4.92;79.68
59789;BME280;47353;51.614;5.530;2023-03-04T04:56:10;102457.09;;;4.93;79.66
59789;BME280;47353;51.614;5.530;2023-03-04T04:58:36;102456.25;;;4.92;79.67
59789;BME280;47353;51.614;5.530;2023-03-04T05:01:02;102465.13;;;4.94;79.95
59789;BME280;47353;51.614;5.530;2023-03-04T05:03:28;102463.44;;;4.93;79.71
59789;BME280;47353;51.614;5.530;2023-03-04T05:05:53;102460.88;;;4.92;79.92
59789;BME280;47353;51.614;5.530;2023-03-04T05:08:18;102454.34;;;4.93;80.04
59789;BME280;47353;51.614;5.530;2023-03-04T05:10:44;102453.50;;;4.92;80.34
59789;BME280;47353;51.614;5.530;2023-03-04T05:13:09;102468.94;;;4.93;80.24
59789;BME280;47353;51.614;5.530;2023-03-04T05:15:36;102466.38;;;4.92;80.26
59789;BME280;47353;51.614;5.530;2023-03-04T05:18:02;102456.44;;;4.91;80.41
59789;BME280;47353;51.614;5.530;2023-03-04T05:20:27;102440.34;;;4.81;80.49
59789;BME280;47353;51.614;5.530;2023-03-04T05:22:52;102464.03;;;4.89;80.52
59789;BME280;47353;51.614;5.530;2023-03-04T05:25:18;102468.69;;;4.88;80.63
59789;BME280;47353;51.614;5.530;2023-03-04T05:27:43;102456.84;;;4.88;80.54
59789;BME280;47353;51.614;5.530;2023-03-04T05:30:10;102458.53;;;4.89;80.62
59789;BME280;47353;51.614;5.530;2023-03-04T05:32:35;102457.72;;;4.88;80.59
59789;BME280;47353;51.614;5.530;2023-03-04T05:35:01;102454.31;;;4.86;80.58
59789;BME280;47353;51.614;5.530;2023-03-04T05:37:26;102456.84;;;4.88;80.79
59789;BME280;47353;51.614;5.530;2023-03-04T05:39:52;102458.53;;;4.89;80.86
59789;BME280;47353;51.614;5.530;2023-03-04T05:42:17;102442.66;;;4.78;80.93
59789;BME280;47353;51.614;5.530;2023-03-04T05:44:42;102452.63;;;4.85;81.09
59789;BME280;47353;51.614;5.530;2023-03-04T05:47:08;102465.28;;;4.86;81.48
59789;BME280;47353;51.614;5.530;2023-03-04T05:49:33;102457.91;;;4.87;81.63
59789;BME280;47353;51.614;5.530;2023-03-04T05:51:59;102466.34;;;4.85;81.57
59789;BME280;47353;51.614;5.530;2023-03-04T05:54:24;102473.91;;;4.83;81.92
59789;BME280;47353;51.614;5.530;2023-03-04T05:56:49;102470.13;;;4.84;82.30
59789;BME280;47353;51.614;5.530;2023-03-04T05:59:15;102475.81;;;4.83;82.57
59789;BME280;47353;51.614;5.530;2023-03-04T06:01:45;102474.97;;;4.82;82.60
59789;BME280;47353;51.614;5.530;2023-03-04T06:04:10;102470.50;;;4.81;82.59
59789;BME280;47353;51.614;5.530;2023-03-04T06:06:36;102468.81;;;4.80;82.87
59789;BME280;47353;51.614;5.530;2023-03-04T06:09:01;102469.88;;;4.79;83.04
59789;BME280;47353;51.614;5.530;2023-03-04T06:11:27;102468.38;;;4.77;83.10
59789;BME280;47353;51.614;5.530;2023-03-04T06:13:52;102473.66;;;4.78;83.28
59789;BME280;47353;51.614;5.530;2023-03-04T06:16:18;102469.44;;;4.76;83.20
59789;BME280;47353;51.614;5.530;2023-03-04T06:18:43;102475.56;;;4.78;83.38
59789;BME280;47353;51.614;5.530;2023-03-04T06:21:08;102471.97;;;4.77;83.49
59789;BME280;47353;51.614;5.530;2023-03-04T06:23:34;102473.44;;;4.73;83.39
59789;BME280;47353;51.614;5.530;2023-03-04T06:25:59;102477.47;;;4.77;83.31
59789;BME280;47353;51.614;5.530;2023-03-04T06:28:26;102478.50;;;4.76;83.43
59789;BME280;47353;51.614;5.530;2023-03-04T06:30:52;102485.88;;;4.76;83.28
59789;BME280;47353;51.614;5.530;2023-03-04T06:33:19;102488.63;;;4.76;83.54
59789;BME280;47353;51.614;5.530;2023-03-04T06:35:44;102486.94;;;4.75;83.70
59789;BME280;47353;51.614;5.530;2023-03-04T06:38:10;102492.44;;;4.75;83.63
59789;BME280;47353;51.614;5.530;2023-03-04T06:40:35;102488.81;;;4.74;83.89
59789;BME280;47353;51.614;5.530;2023-03-04T06:43:01;102490.72;;;4.74;84.07
59789;BME280;47353;51.614;5.530;2023-03-04T06:45:26;102490.72;;;4.74;84.51
59789;BME280;47353;51.614;5.530;2023-03-04T06:47:52;102494.13;;;4.76;84.65
59789;BME280;47353;51.614;5.530;2023-03-04T06:50:17;102493.47;;;4.74;84.89
59789;BME280;47353;51.614;5.530;2023-03-04T06:52:43;102489.69;;;4.75;85.15
59789;BME280;47353;51.614;5.530;2023-03-04T06:55:08;102489.50;;;4.76;85.46
59789;BME280;47353;51.614;5.530;2023-03-04T06:57:34;102494.78;;;4.78;85.36
59789;BME280;47353;51.614;5.530;2023-03-04T06:59:59;102497.72;;;4.76;85.86
59789;BME280;47353;51.614;5.530;2023-03-04T07:02:27;102485.03;;;4.75;86.05
59789;BME280;47353;51.614;5.530;2023-03-04T07:04:52;102494.56;;;4.79;86.24
59789;BME280;47353;51.614;5.530;2023-03-04T07:07:18;102491.63;;;4.81;86.35
59789;BME280;47353;51.614;5.530;2023-03-04T07:09:43;102488.88;;;4.81;86.56
59789;BME280;47353;51.614;5.530;2023-03-04T07:12:09;102495.19;;;4.81;86.49
59789;BME280;47353;51.614;5.530;2023-03-04T07:14:34;102496.91;;;4.82;86.38
59789;BME280;47353;51.614;5.530;2023-03-04T07:17:00;102491.84;;;4.86;86.63
59789;BME280;47353;51.614;5.530;2023-03-04T07:19:25;102496.94;;;4.89;86.78
59789;BME280;47353;51.614;5.530;2023-03-04T07:21:51;102495.72;;;4.91;86.50
59789;BME280;47353;51.614;5.530;2023-03-04T07:24:16;102499.50;;;4.90;87.36
59789;BME280;47353;51.614;5.530;2023-03-04T07:26:41;102501.88;;;4.93;87.40
59789;BME280;47353;51.614;5.530;2023-03-04T07:29:07;102500.81;;;4.94;87.48
59789;BME280;47353;51.614;5.530;2023-03-04T07:31:33;102509.50;;;4.98;87.57
59789;BME280;47353;51.614;5.530;2023-03-04T07:34:02;102505.28;;;5.02;87.58
59789;BME280;47353;51.614;5.530;2023-03-04T07:36:28;102509.31;;;5.06;87.76
59789;BME280;47353;51.614;5.530;2023-03-04T07:38:54;102512.50;;;5.09;87.68
59789;BME280;47353;51.614;5.530;2023-03-04T07:41:20;102514.66;;;5.14;87.74
59789;BME280;47353;51.614;5.530;2023-03-04T07:43:46;102513.22;;;5.18;87.96
59789;BME280;47353;51.614;5.530;2023-03-04T07:46:12;102522.94;;;5.21;88.10
59789;BME280;47353;51.614;5.530;2023-03-04T07:48:37;102514.31;;;5.24;88.21
59789;BME280;47353;51.614;5.530;2023-03-04T07:51:07;102516.66;;;5.27;88.26
59789;BME280;47353;51.614;5.530;2023-03-04T07:53:34;102520.25;;;5.27;88.05
59789;BME280;47353;51.614;5.530;2023-03-04T07:56:00;102519.63;;;5.32;88.11
59789;BME280;47353;51.614;5.530;2023-03-04T07:58:25;102523.25;;;5.39;88.35
59789;BME280;47353;51.614;5.530;2023-03-04T08:00:50;102523.09;;;5.47;88.19
59789;BME280;47353;51.614;5.530;2023-03-04T08:03:16;102523.16;;;5.53;87.99
59789;BME280;47353;51.614;5.530;2023-03-04T08:05:42;102530.16;;;5.62;87.58
59789;BME280;47353;51.614;5.530;2023-03-04T08:08:07;102524.31;;;5.72;87.25
59789;BME280;47353;51.614;5.530;2023-03-04T08:10:33;102527.53;;;5.82;86.16
59789;BME280;47353;51.614;5.530;2023-03-04T08:12:58;102530.56;;;5.93;85.93
59789;BME280;47353;51.614;5.530;2023-03-04T08:15:24;102529.97;;;6.11;85.71
59789;BME280;47353;51.614;5.530;2023-03-04T08:17:51;102523.25;;;6.20;84.55
59789;BME280;47353;51.614;5.530;2023-03-04T08:20:17;102528.13;;;6.31;84.01
59789;BME280;47353;51.614;5.530;2023-03-04T08:22:42;102526.25;;;6.57;84.18
59789;BME280;47353;51.614;5.530;2023-03-04T08:25:08;102528.81;;;7.11;83.21
59789;BME280;47353;51.614;5.530;2023-03-04T08:27:33;102527.28;;;7.41;80.69
59789;BME280;47353;51.614;5.530;2023-03-04T08:29:59;102526.38;;;7.67;79.10
59789;BME280;47353;51.614;5.530;2023-03-04T08:32:24;102532.00;;;7.91;78.01
59789;BME280;47353;51.614;5.530;2023-03-04T08:34:49;102537.47;;;7.98;76.48
59789;BME280;47353;51.614;5.530;2023-03-04T08:37:15;102538.13;;;8.00;75.76
59789;BME280;47353;51.614;5.530;2023-03-04T08:39:40;102533.81;;;8.17;75.47
59789;BME280;47353;51.614;5.530;2023-03-04T08:42:06;102542.72;;;8.12;74.35
59789;BME280;47353;51.614;5.530;2023-03-04T08:44:31;102535.50;;;8.11;74.30
59789;BME280;47353;51.614;5.530;2023-03-04T08:46:56;102538.47;;;8.23;74.40
59789;BME280;47353;51.614;5.530;2023-03-04T08:49:22;102537.25;;;8.75;74.40
59789;BME280;47353;51.614;5.530;2023-03-04T08:51:47;102531.09;;;9.28;71.63
59789;BME280;47353;51.614;5.530;2023-03-04T08:54:13;102537.88;;;9.68;69.85
59789;BME280;47353;51.614;5.530;2023-03-04T08:56:39;102541.47;;;9.69;68.92
59789;BME280;47353;51.614;5.530;2023-03-04T08:59:05;102537.09;;;9.61;68.24
59789;BME280;47353;51.614;5.530;2023-03-04T09:01:30;102535.13;;;9.68;68.62
59789;BME280;47353;51.614;5.530;2023-03-04T09:03:55;102534.72;;;9.65;68.72
59789;BME280;47353;51.614;5.530;2023-03-04T09:06:21;102533.25;;;9.44;69.01
59789;BME280;47353;51.614;5.530;2023-03-04T09:08:47;102525.56;;;9.28;69.33
59789;BME280;47353;51.614;5.530;2023-03-04T09:11:12;102524.94;;;9.26;69.35
59789;BME280;47353;51.614;5.530;2023-03-04T09:13:38;102531.34;;;9.45;68.87
59789;BME280;47353;51.614;5.530;2023-03-04T09:16:11;102524.97;;;9.80;68.43
59789;BME280;47353;51.614;5.530;2023-03-04T09:18:37;102518.47;;;10.23;67.23
59789;BME280;47353;51.614;5.530;2023-03-04T09:21:04;102520.03;;;10.48;65.86
59789;BME280;47353;51.614;5.530;2023-03-04T09:23:29;102504.84;;;11.03;64.22
59789;BME280;47353;51.614;5.530;2023-03-04T09:25:55;102508.66;;;11.95;61.14
59789;BME280;47353;51.614;5.530;2023-03-04T09:28:20;102503.81;;;12.58;57.78
59789;BME280;47353;51.614;5.530;2023-03-04T09:30:46;102507.59;;;13.51;56.45
59789;BME280;47353;51.614;5.530;2023-03-04T09:33:12;102509.59;;;14.15;51.21
59789;BME280;47353;51.614;5.530;2023-03-04T09:35:38;102514.13;;;13.78;50.64
59789;BME280;47353;51.614;5.530;2023-03-04T09:38:03;102504.22;;;13.27;51.50
59789;BME280;47353;51.614;5.530;2023-03-04T09:40:32;102512.88;;;12.81;52.66
59789;BME280;47353;51.614;5.530;2023-03-04T09:43:03;102511.63;;;12.44;54.42
59789;BME280;47353;51.614;5.530;2023-03-04T09:45:43;102516.91;;;12.18;57.09
59789;BME280;47353;51.614;5.530;2023-03-04T09:48:13;102514.75;;;11.68;58.38
59789;BME280;47353;51.614;5.530;2023-03-04T09:50:47;102513.78;;;11.28;61.00
59789;BME280;47353;51.614;5.530;2023-03-04T09:55:44;102515.22;;;10.55;61.86
59789;BME280;47353;51.614;5.530;2023-03-04T09:58:41;102514.00;;;10.81;62.70
59789;BME280;47353;51.614;5.530;2023-03-04T10:01:21;102511.41;;;10.68;61.86
59789;BME280;47353;51.614;5.530;2023-03-04T10:04:05;102512.34;;;10.50;62.51
59789;BME280;47353;51.614;5.530;2023-03-04T10:06:35;102509.28;;;10.10;63.77
59789;BME280;47353;51.614;5.530;2023-03-04T10:11:46;102516.53;;;9.75;64.94
59789;BME280;47353;51.614;5.530;2023-03-04T10:17:25;102505.13;;;10.20;64.64
59789;BME280;47353;51.614;5.530;2023-03-04T10:22:36;102502.09;;;10.92;61.71
59789;BME280;47353;51.614;5.530;2023-03-04T10:28:03;102511.03;;;10.53;62.67
59789;BME280;47353;51.614;5.530;2023-03-04T10:33:29;102513.22;;;9.85;64.10
59789;BME280;47353;51.614;5.530;2023-03-04T10:36:02;102517.69;;;9.68;65.55
59789;BME280;47353;51.614;5.530;2023-03-04T10:38:39;102506.53;;;9.56;66.59
59789;BME280;47353;51.614;5.530;2023-03-04T10:41:29;102498.94;;;9.52;67.33
59789;BME280;47353;51.614;5.530;2023-03-04T10:46:23;102498.56;;;9.66;68.04
59789;BME280;47353;51.614;5.530;2023-03-04T10:48:49;102486.91;;;10.12;66.95
59789;BME280;47353;51.614;5.530;2023-03-04T10:53:46;102479.34;;;14.02;58.56
59789;BME280;47353;51.614;5.530;2023-03-04T10:56:33;102486.25;;;16.81;51.14
59789;BME280;47353;51.614;5.530;2023-03-04T11:01:55;102485.28;;;18.55;42.08
59789;BME280;47353;51.614;5.530;2023-03-04T11:04:25;102493.00;;;18.24;42.19
59789;BME280;47353;51.614;5.530;2023-03-04T11:06:51;102487.13;;;17.32;42.25
59789;BME280;47353;51.614;5.530;2023-03-04T11:09:26;102489.22;;;16.29;45.38
59789;BME280;47353;51.614;5.530;2023-03-04T11:11:58;102487.75;;;15.50;47.47
59789;BME280;47353;51.614;5.530;2023-03-04T11:14:27;102482.22;;;14.87;48.69
59789;BME280;47353;51.614;5.530;2023-03-04T11:17:00;102470.66;;;15.88;47.63
59789;BME280;47353;51.614;5.530;2023-03-04T11:19:37;102475.94;;;15.85;46.69
59789;BME280;47353;51.614;5.530;2023-03-04T11:22:04;102470.47;;;14.80;48.23
59789;BME280;47353;51.614;5.530;2023-03-04T11:24:32;102469.44;;;14.91;49.15
59789;BME280;47353;51.614;5.530;2023-03-04T11:27:03;102470.13;;;14.45;49.61
59789;BME280;47353;51.614;5.530;2023-03-04T11:29:35;102465.81;;;14.32;50.55
59789;BME280;47353;51.614;5.530;2023-03-04T11:32:33;102463.06;;;14.64;52.01
59789;BME280;47353;51.614;5.530;2023-03-04T11:35:17;102454.03;;;16.38;48.76
59789;BME280;47353;51.614;5.530;2023-03-04T11:38:16;102452.38;;;17.38;45.42
59789;BME280;47353;51.614;5.530;2023-03-04T11:40:45;102463.13;;;15.94;44.91
59789;BME280;47353;51.614;5.530;2023-03-04T11:43:16;102456.09;;;14.98;47.01
59789;BME280;47353;51.614;5.530;2023-03-04T11:48:28;102460.75;;;13.21;52.72
59789;BME280;47353;51.614;5.530;2023-03-04T11:51:46;102440.28;;;12.17;55.55
59789;BME280;47353;51.614;5.530;2023-03-04T11:56:59;102437.63;;;11.94;59.43
59789;BME280;47353;51.614;5.530;2023-03-04T12:03:19;102429.19;;;12.17;58.72
59789;BME280;47353;51.614;5.530;2023-03-04T12:06:01;102420.91;;;12.05;60.12
59789;BME280;47353;51.614;5.530;2023-03-04T12:13:51;102419.88;;;11.55;61.00
59789;BME280;47353;51.614;5.530;2023-03-04T12:21:30;102416.03;;;10.52;66.08
59789;BME280;47353;51.614;5.530;2023-03-04T12:43:34;102363.28;;;12.95;58.60
59789;BME280;47353;51.614;5.530;2023-03-04T12:49:25;102369.28;;;12.21;58.57
59789;BME280;47353;51.614;5.530;2023-03-04T12:57:13;102363.53;;;11.03;63.65
59789;BME280;47353;51.614;5.530;2023-03-04T12:59:53;102370.91;;;10.86;64.71
59789;BME280;47353;51.614;5.530;2023-03-04T13:10:13;102360.41;;;10.31;68.08
59789;BME280;47353;51.614;5.530;2023-03-04T13:12:49;102357.41;;;10.21;69.60
59789;BME280;47353;51.614;5.530;2023-03-04T13:17:53;102358.81;;;9.82;73.18
59789;BME280;47353;51.614;5.530;2023-03-04T13:20:41;102354.59;;;9.50;75.25
59789;BME280;47353;51.614;5.530;2023-03-04T13:30:39;102343.03;;;9.23;81.32
59789;BME280;47353;51.614;5.530;2023-03-04T13:41:11;102337.78;;;9.51;81.47
59789;BME280;47353;51.614;5.530;2023-03-04T13:43:42;102334.31;;;9.56;81.90
59789;BME280;47353;51.614;5.530;2023-03-04T13:48:45;102323.44;;;9.72;81.08
59789;BME280;47353;51.614;5.530;2023-03-04T13:51:34;102322.63;;;9.83;79.29
59789;BME280;47353;51.614;5.530;2023-03-04T13:54:30;102329.66;;;9.97;79.29
59789;BME280;47353;51.614;5.530;2023-03-04T13:59:42;102316.50;;;10.69;77.88
59789;BME280;47353;51.614;5.530;2023-03-04T14:02:15;102319.50;;;10.67;75.74
59789;BME280;47353;51.614;5.530;2023-03-04T14:12:20;102311.09;;;9.98;76.08
59789;BME280;47353;51.614;5.530;2023-03-04T14:14:57;102315.28;;;9.77;77.22
59789;BME280;47353;51.614;5.530;2023-03-04T14:17:28;102317.75;;;9.38;78.20
59789;BME280;47353;51.614;5.530;2023-03-04T14:19:55;102314.88;;;9.15;79.83
59789;BME280;47353;51.614;5.530;2023-03-04T14:22:25;102317.50;;;8.92;81.42
59789;BME280;47353;51.614;5.530;2023-03-04T14:27:20;102312.50;;;8.64;82.74
59789;BME280;47353;51.614;5.530;2023-03-04T14:29:54;102304.69;;;8.61;83.33
59789;BME280;47353;51.614;5.530;2023-03-04T14:32:20;102312.97;;;8.61;83.39
59789;BME280;47353;51.614;5.530;2023-03-04T14:34:48;102311.44;;;8.65;82.59
59789;BME280;47353;51.614;5.530;2023-03-04T14:37:25;102304.00;;;8.66;82.23
59789;BME280;47353;51.614;5.530;2023-03-04T14:39:55;102287.13;;;8.74;82.00
59789;BME280;47353;51.614;5.530;2023-03-04T14:42:24;102294.13;;;8.94;81.64
59789;BME280;47353;51.614;5.530;2023-03-04T14:44:54;102283.06;;;9.42;81.21
59789;BME280;47353;51.614;5.530;2023-03-04T14:47:35;102274.00;;;10.17;78.44
59789;BME280;47353;51.614;5.530;2023-03-04T14:50:09;102277.97;;;10.56;75.78
59789;BME280;47353;51.614;5.530;2023-03-04T14:52:42;102292.41;;;10.69;73.99
59789;BME280;47353;51.614;5.530;2023-03-04T14:55:23;102288.34;;;10.72;72.97